sensor_id;sensor_type;location;lat;lon;timestamp;pressure;altitude;pressure_sealevel;temperature;humidity
10652;BME280;5374;42.742;23.266;2023-02-18T00:01:22;96238.88;;;3.28;61.43
10652;BME280;5374;42.742;23.266;2023-02-18T00:04:09;96230.13;;;3.21;61.33
10652;BME280;5374;42.742;23.266;2023-02-18T00:06:58;96230.13;;;3.21;61.75
10652;BME280;5374;42.742;23.266;2023-02-18T00:09:45;96220.81;;;3.19;61.80
10652;BME280;5374;42.742;23.266;2023-02-18T00:12:33;96186.59;;;2.91;61.76
10652;BME280;5374;42.742;23.266;2023-02-18T00:15:21;96219.22;;;3.03;61.71
10652;BME280;5374;42.742;23.266;2023-02-18T00:18:08;96211.88;;;3.13;61.76
10652;BME280;5374;42.742;23.266;2023-02-18T00:20:55;96204.72;;;3.07;61.69
10652;BME280;5374;42.742;23.266;2023-02-18T00:23:43;96189.34;;;3.04;61.96
10652;BME280;5374;42.742;23.266;2023-02-18T00:26:30;96189.34;;;3.04;62.04
10652;BME280;5374;42.742;23.266;2023-02-18T00:29:18;96200.56;;;3.13;61.98
10652;BME280;5374;42.742;23.266;2023-02-18T00:32:07;96186.66;;;2.97;62.20
10652;BME280;5374;42.742;23.266;2023-02-18T00:34:54;96196.78;;;3.00;62.51
10652;BME280;5374;42.742;23.266;2023-02-18T00:37:41;96188.91;;;3.00;62.61
10652;BME280;5374;42.742;23.266;2023-02-18T00:40:28;96153.59;;;2.67;62.85
10652;BME280;5374;42.742;23.266;2023-02-18T00:43:15;96190.19;;;2.90;62.94
10652;BME280;5374;42.742;23.266;2023-02-18T00:46:03;96192.56;;;2.85;63.34
10652;BME280;5374;42.742;23.266;2023-02-18T00:48:52;96162.75;;;2.71;63.21
10652;BME280;5374;42.742;23.266;2023-02-18T00:51:39;96180.16;;;2.79;63.49
10652;BME280;5374;42.742;23.266;2023-02-18T00:54:26;96158.03;;;2.66;63.61
10652;BME280;5374;42.742;23.266;2023-02-18T00:57:13;96189.38;;;2.74;64.05
10652;BME280;5374;42.742;23.266;2023-02-18T01:00:00;96192.81;;;2.75;63.88
10652;BME280;5374;42.742;23.266;2023-02-18T01:02:48;96185.88;;;2.67;64.12
10652;BME280;5374;42.742;23.266;2023-02-18T01:05:41;96183.63;;;2.64;63.79
10652;BME280;5374;42.742;23.266;2023-02-18T01:08:28;96177.84;;;2.69;64.01
10652;BME280;5374;42.742;23.266;2023-02-18T01:11:15;96186.31;;;2.56;64.24
10652;BME280;5374;42.742;23.266;2023-02-18T01:14:04;96172.41;;;2.56;64.51
10652;BME280;5374;42.742;23.266;2023-02-18T01:16:53;96182.34;;;2.60;64.33
10652;BME280;5374;42.742;23.266;2023-02-18T01:19:40;96177.28;;;2.59;64.39
10652;BME280;5374;42.742;23.266;2023-02-18T01:22:29;96173.22;;;2.56;64.55
10652;BME280;5374;42.742;23.266;2023-02-18T01:25:16;96176.47;;;2.58;64.51
10652;BME280;5374;42.742;23.266;2023-02-18T01:28:04;96167.88;;;2.50;64.70
10652;BME280;5374;42.742;23.266;2023-02-18T01:30:52;96160.75;;;2.58;64.42
10652;BME280;5374;42.742;23.266;2023-02-18T01:33:40;96173.22;;;2.56;64.41
10652;BME280;5374;42.742;23.266;2023-02-18T01:36:27;96169.09;;;2.47;64.32
10652;BME280;5374;42.742;23.266;2023-02-18T01:39:15;96173.41;;;2.40;64.83
10652;BME280;5374;42.742;23.266;2023-02-18T01:42:03;96165.00;;;2.30;65.20
10652;BME280;5374;42.742;23.266;2023-02-18T01:44:50;96182.34;;;2.31;65.28
10652;BME280;5374;42.742;23.266;2023-02-18T01:47:37;96182.50;;;2.29;65.45
10652;BME280;5374;42.742;23.266;2023-02-18T01:50:25;96197.44;;;2.29;65.60
10652;BME280;5374;42.742;23.266;2023-02-18T01:53:14;96189.94;;;2.26;65.52
10652;BME280;5374;42.742;23.266;2023-02-18T01:56:06;96180.19;;;2.20;65.55
10652;BME280;5374;42.742;23.266;2023-02-18T01:58:56;96182.78;;;2.20;65.49
10652;BME280;5374;42.742;23.266;2023-02-18T02:01:46;96169.41;;;2.15;65.84
10652;BME280;5374;42.742;23.266;2023-02-18T02:04:33;96178.09;;;2.15;65.92
10652;BME280;5374;42.742;23.266;2023-02-18T02:07:22;96178.63;;;2.11;65.74
10652;BME280;5374;42.742;23.266;2023-02-18T02:10:12;96177.97;;;2.09;65.96
10652;BME280;5374;42.742;23.266;2023-02-18T02:13:07;96154.22;;;1.95;66.02
10652;BME280;5374;42.742;23.266;2023-02-18T02:16:00;96165.22;;;2.05;65.75
10652;BME280;5374;42.742;23.266;2023-02-18T02:18:59;96178.97;;;2.08;65.87
10652;BME280;5374;42.742;23.266;2023-02-18T02:25:22;96188.91;;;2.12;66.23
10652;BME280;5374;42.742;23.266;2023-02-18T02:28:33;96168.22;;;2.02;66.07
10652;BME280;5374;42.742;23.266;2023-02-18T02:34:43;96169.66;;;2.05;66.16
10652;BME280;5374;42.742;23.266;2023-02-18T02:37:40;96170.22;;;2.00;66.33
10652;BME280;5374;42.742;23.266;2023-02-18T02:40:35;96149.63;;;1.97;66.16
10652;BME280;5374;42.742;23.266;2023-02-18T02:43:30;96162.53;;;1.99;66.34
10652;BME280;5374;42.742;23.266;2023-02-18T02:46:25;96157.00;;;1.94;66.73
10652;BME280;5374;42.742;23.266;2023-02-18T02:49:31;96159.81;;;1.92;66.69
10652;BME280;5374;42.742;23.266;2023-02-18T02:52:25;96166.03;;;1.91;66.93
10652;BME280;5374;42.742;23.266;2023-02-18T02:55:16;96176.81;;;1.96;66.94
10652;BME280;5374;42.742;23.266;2023-02-18T02:58:03;96181.41;;;1.94;67.05
10652;BME280;5374;42.742;23.266;2023-02-18T03:01:05;96171.28;;;1.91;67.23
10652;BME280;5374;42.742;23.266;2023-02-18T03:04:29;96158.19;;;1.91;67.08
10652;BME280;5374;42.742;23.266;2023-02-18T03:07:41;96159.88;;;1.84;66.93
10652;BME280;5374;42.742;23.266;2023-02-18T03:10:41;96166.66;;;1.93;67.00
10652;BME280;5374;42.742;23.266;2023-02-18T03:13:52;96181.53;;;1.78;67.85
10652;BME280;5374;42.742;23.266;2023-02-18T03:16:45;96186.50;;;1.73;68.17
10652;BME280;5374;42.742;23.266;2023-02-18T03:19:39;96181.13;;;1.66;68.30
10652;BME280;5374;42.742;23.266;2023-02-18T03:22:30;96191.25;;;1.69;68.45
10652;BME280;5374;42.742;23.266;2023-02-18T03:25:20;96197.94;;;1.72;68.68
10652;BME280;5374;42.742;23.266;2023-02-18T03:28:12;96201.56;;;1.71;68.59
10652;BME280;5374;42.742;23.266;2023-02-18T03:31:03;96205.63;;;1.74;68.06
10652;BME280;5374;42.742;23.266;2023-02-18T03:33:56;96203.72;;;1.67;67.90
10652;BME280;5374;42.742;23.266;2023-02-18T03:36:46;96212.97;;;1.78;67.88
10652;BME280;5374;42.742;23.266;2023-02-18T03:39:34;96211.97;;;1.79;67.58
10652;BME280;5374;42.742;23.266;2023-02-18T03:42:25;96206.75;;;1.79;67.36
10652;BME280;5374;42.742;23.266;2023-02-18T03:45:13;96210.78;;;1.82;67.10
10652;BME280;5374;42.742;23.266;2023-02-18T03:48:00;96210.22;;;1.71;67.41
10652;BME280;5374;42.742;23.266;2023-02-18T03:50:47;96221.84;;;1.69;67.41
10652;BME280;5374;42.742;23.266;2023-02-18T03:53:34;96218.94;;;1.64;67.55
10652;BME280;5374;42.742;23.266;2023-02-18T03:56:22;96209.63;;;1.61;67.57
10652;BME280;5374;42.742;23.266;2023-02-18T03:59:12;96188.13;;;1.51;67.77
10652;BME280;5374;42.742;23.266;2023-02-18T04:01:59;96203.72;;;1.67;67.57
10652;BME280;5374;42.742;23.266;2023-02-18T04:04:47;96202.06;;;1.66;67.68
10652;BME280;5374;42.742;23.266;2023-02-18T04:07:34;96208.25;;;1.74;67.63
10652;BME280;5374;42.742;23.266;2023-02-18T04:10:21;96204.94;;;1.80;67.32
10652;BME280;5374;42.742;23.266;2023-02-18T04:13:12;96193.56;;;1.87;67.37
10652;BME280;5374;42.742;23.266;2023-02-18T04:16:00;96198.72;;;1.81;67.45
10652;BME280;5374;42.742;23.266;2023-02-18T04:18:50;96189.03;;;1.81;67.18
10652;BME280;5374;42.742;23.266;2023-02-18T04:21:38;96189.09;;;1.73;67.71
10652;BME280;5374;42.742;23.266;2023-02-18T04:24:25;96173.34;;;1.58;67.97
10652;BME280;5374;42.742;23.266;2023-02-18T04:27:12;96183.28;;;1.63;68.31
10652;BME280;5374;42.742;23.266;2023-02-18T04:29:59;96176.25;;;1.63;68.14
10652;BME280;5374;42.742;23.266;2023-02-18T04:32:48;96179.38;;;1.59;68.25
10652;BME280;5374;42.742;23.266;2023-02-18T04:35:36;96164.06;;;1.56;68.40
10652;BME280;5374;42.742;23.266;2023-02-18T04:38:25;96178.06;;;1.63;68.51
10652;BME280;5374;42.742;23.266;2023-02-18T04:41:12;96187.47;;;1.72;68.49
10652;BME280;5374;42.742;23.266;2023-02-18T04:43:59;96151.63;;;1.58;68.62
10652;BME280;5374;42.742;23.266;2023-02-18T04:46:46;96188.13;;;1.74;68.32
10652;BME280;5374;42.742;23.266;2023-02-18T04:49:35;96204.22;;;1.86;68.69
10652;BME280;5374;42.742;23.266;2023-02-18T04:52:22;96219.75;;;1.87;68.77
10652;BME280;5374;42.742;23.266;2023-02-18T04:55:10;96211.06;;;1.87;68.75
10652;BME280;5374;42.742;23.266;2023-02-18T04:57:57;96210.25;;;1.86;68.76
10652;BME280;5374;42.742;23.266;2023-02-18T05:00:44;96220.31;;;1.97;68.85
10652;BME280;5374;42.742;23.266;2023-02-18T05:03:32;96216.72;;;1.98;68.46
10652;BME280;5374;42.742;23.266;2023-02-18T05:06:20;96208.16;;;1.82;69.72
10652;BME280;5374;42.742;23.266;2023-02-18T05:09:07;96204.97;;;1.94;69.47
10652;BME280;5374;42.742;23.266;2023-02-18T05:11:55;96207.97;;;2.06;69.49
10652;BME280;5374;42.742;23.266;2023-02-18T05:14:42;96158.81;;;1.93;69.24
10652;BME280;5374;42.742;23.266;2023-02-18T05:17:29;96191.94;;;2.24;69.23
10652;BME280;5374;42.742;23.266;2023-02-18T05:20:16;96175.47;;;2.15;69.46
10652;BME280;5374;42.742;23.266;2023-02-18T05:23:05;96194.81;;;2.29;69.34
10652;BME280;5374;42.742;23.266;2023-02-18T05:25:53;96200.97;;;2.36;69.06
10652;BME280;5374;42.742;23.266;2023-02-18T05:28:40;96165.28;;;2.35;68.89
10652;BME280;5374;42.742;23.266;2023-02-18T05:31:27;96184.59;;;2.49;68.98
10652;BME280;5374;42.742;23.266;2023-02-18T05:34:15;96190.75;;;2.56;68.68
10652;BME280;5374;42.742;23.266;2023-02-18T05:37:02;96195.00;;;2.57;68.80
10652;BME280;5374;42.742;23.266;2023-02-18T05:39:50;96198.50;;;2.49;69.11
10652;BME280;5374;42.742;23.266;2023-02-18T05:42:38;96192.47;;;2.63;68.59
10652;BME280;5374;42.742;23.266;2023-02-18T05:45:25;96202.97;;;2.63;68.64
10652;BME280;5374;42.742;23.266;2023-02-18T05:48:12;96212.28;;;2.66;68.76
10652;BME280;5374;42.742;23.266;2023-02-18T05:50:59;96226.28;;;2.73;68.66
10652;BME280;5374;42.742;23.266;2023-02-18T05:53:46;96223.38;;;2.83;68.45
10652;BME280;5374;42.742;23.266;2023-02-18T05:56:35;96221.69;;;2.90;67.82
10652;BME280;5374;42.742;23.266;2023-02-18T05:59:22;96221.03;;;3.02;67.33
10652;BME280;5374;42.742;23.266;2023-02-18T06:02:09;96207.34;;;3.07;67.57
10652;BME280;5374;42.742;23.266;2023-02-18T06:04:57;96207.88;;;3.17;67.87
10652;BME280;5374;42.742;23.266;2023-02-18T06:07:44;96204.78;;;3.28;67.85
10652;BME280;5374;42.742;23.266;2023-02-18T06:10:31;96218.22;;;3.40;67.67
10652;BME280;5374;42.742;23.266;2023-02-18T06:13:20;96218.72;;;3.50;67.35
10652;BME280;5374;42.742;23.266;2023-02-18T06:16:07;96227.00;;;3.68;66.36
10652;BME280;5374;42.742;23.266;2023-02-18T06:18:54;96214.66;;;3.90;65.76
10652;BME280;5374;42.742;23.266;2023-02-18T06:21:41;96206.22;;;3.95;66.09
10652;BME280;5374;42.742;23.266;2023-02-18T06:24:28;96195.63;;;4.09;65.96
10652;BME280;5374;42.742;23.266;2023-02-18T06:27:15;96193.75;;;4.25;65.75
10652;BME280;5374;42.742;23.266;2023-02-18T06:30:06;96185.78;;;4.46;65.09
10652;BME280;5374;42.742;23.266;2023-02-18T06:32:53;96187.69;;;4.59;64.83
10652;BME280;5374;42.742;23.266;2023-02-18T06:35:40;96191.34;;;4.64;64.39
10652;BME280;5374;42.742;23.266;2023-02-18T06:38:28;96202.06;;;5.04;63.03
10652;BME280;5374;42.742;23.266;2023-02-18T06:41:15;96207.03;;;5.27;62.15
10652;BME280;5374;42.742;23.266;2023-02-18T06:44:03;96207.06;;;5.33;61.76
10652;BME280;5374;42.742;23.266;2023-02-18T06:46:52;96198.13;;;5.28;61.51
10652;BME280;5374;42.742;23.266;2023-02-18T06:49:39;96196.91;;;5.30;61.60
10652;BME280;5374;42.742;23.266;2023-02-18T06:52:26;96191.47;;;5.45;61.82
10652;BME280;5374;42.742;23.266;2023-02-18T06:55:15;96196.78;;;5.58;61.90
10652;BME280;5374;42.742;23.266;2023-02-18T06:58:02;96199.06;;;5.88;61.79
10652;BME280;5374;42.742;23.266;2023-02-18T07:00:50;96192.22;;;6.20;60.21
10652;BME280;5374;42.742;23.266;2023-02-18T07:03:39;96209.22;;;6.57;59.17
10652;BME280;5374;42.742;23.266;2023-02-18T07:06:26;96207.94;;;6.85;58.68
10652;BME280;5374;42.742;23.266;2023-02-18T07:09:13;96163.28;;;6.84;58.04
10652;BME280;5374;42.742;23.266;2023-02-18T07:12:00;96200.34;;;7.09;57.54
10652;BME280;5374;42.742;23.266;2023-02-18T07:14:48;96181.53;;;6.99;57.04
10652;BME280;5374;42.742;23.266;2023-02-18T07:17:35;96196.47;;;7.18;56.85
10652;BME280;5374;42.742;23.266;2023-02-18T07:20:24;96184.97;;;7.44;56.14
10652;BME280;5374;42.742;23.266;2023-02-18T07:23:11;96188.94;;;7.60;55.48
10652;BME280;5374;42.742;23.266;2023-02-18T07:26:03;96197.00;;;7.71;56.11
10652;BME280;5374;42.742;23.266;2023-02-18T07:28:50;96179.25;;;7.85;55.28
10652;BME280;5374;42.742;23.266;2023-02-18T07:31:37;96189.53;;;7.93;54.61
10652;BME280;5374;42.742;23.266;2023-02-18T07:34:24;96196.75;;;8.11;54.07
10652;BME280;5374;42.742;23.266;2023-02-18T07:37:13;96196.53;;;8.12;54.24
10652;BME280;5374;42.742;23.266;2023-02-18T07:40:00;96199.19;;;8.12;54.45
10652;BME280;5374;42.742;23.266;2023-02-18T07:42:47;96205.63;;;8.16;54.38
10652;BME280;5374;42.742;23.266;2023-02-18T07:45:36;96200.91;;;8.25;55.23
10652;BME280;5374;42.742;23.266;2023-02-18T07:48:24;96200.00;;;8.38;55.29
10652;BME280;5374;42.742;23.266;2023-02-18T07:51:11;96195.22;;;8.53;54.77
10652;BME280;5374;42.742;23.266;2023-02-18T07:54:00;96193.81;;;8.69;54.42
10652;BME280;5374;42.742;23.266;2023-02-18T07:56:48;96176.47;;;8.73;52.94
10652;BME280;5374;42.742;23.266;2023-02-18T07:59:35;96189.00;;;9.02;52.41
10652;BME280;5374;42.742;23.266;2023-02-18T08:02:23;96192.28;;;9.34;52.01
10652;BME280;5374;42.742;23.266;2023-02-18T08:05:11;96180.88;;;9.64;50.94
10652;BME280;5374;42.742;23.266;2023-02-18T08:07:59;96186.97;;;9.94;49.61
10652;BME280;5374;42.742;23.266;2023-02-18T08:10:48;96174.81;;;10.16;48.53
10652;BME280;5374;42.742;23.266;2023-02-18T08:13:35;96172.09;;;10.35;48.50
10652;BME280;5374;42.742;23.266;2023-02-18T08:16:22;96178.22;;;10.58;47.19
10652;BME280;5374;42.742;23.266;2023-02-18T08:19:10;96172.53;;;10.78;47.37
10652;BME280;5374;42.742;23.266;2023-02-18T08:22:00;96166.97;;;11.03;46.90
10652;BME280;5374;42.742;23.266;2023-02-18T08:24:47;96173.09;;;11.04;46.99
10652;BME280;5374;42.742;23.266;2023-02-18T08:27:36;96170.03;;;11.12;46.92
10652;BME280;5374;42.742;23.266;2023-02-18T08:30:23;96166.56;;;11.23;46.55
10652;BME280;5374;42.742;23.266;2023-02-18T08:33:10;96157.34;;;11.14;45.64
10652;BME280;5374;42.742;23.266;2023-02-18T08:35:57;96158.13;;;11.26;46.04
10652;BME280;5374;42.742;23.266;2023-02-18T08:38:44;96144.50;;;11.22;45.42
10652;BME280;5374;42.742;23.266;2023-02-18T08:41:31;96156.34;;;11.31;45.98
10652;BME280;5374;42.742;23.266;2023-02-18T08:44:20;96164.09;;;11.33;45.53
10652;BME280;5374;42.742;23.266;2023-02-18T08:47:07;96161.44;;;11.33;45.65
10652;BME280;5374;42.742;23.266;2023-02-18T08:49:54;96149.75;;;11.34;46.37
10652;BME280;5374;42.742;23.266;2023-02-18T08:52:41;96165.38;;;11.59;46.09
10652;BME280;5374;42.742;23.266;2023-02-18T08:55:29;96166.31;;;11.64;45.85
10652;BME280;5374;42.742;23.266;2023-02-18T08:58:16;96163.75;;;11.70;45.59
10652;BME280;5374;42.742;23.266;2023-02-18T09:01:06;96157.94;;;11.73;45.53
10652;BME280;5374;42.742;23.266;2023-02-18T09:03:54;96150.53;;;11.75;45.35
10652;BME280;5374;42.742;23.266;2023-02-18T09:06:41;96164.47;;;11.93;44.68
10652;BME280;5374;42.742;23.266;2023-02-18T09:09:28;96158.81;;;12.07;44.20
10652;BME280;5374;42.742;23.266;2023-02-18T09:12:15;96153.44;;;12.18;43.80
10652;BME280;5374;42.742;23.266;2023-02-18T09:15:03;96161.56;;;12.28;43.25
10652;BME280;5374;42.742;23.266;2023-02-18T09:17:52;96158.03;;;12.40;42.89
10652;BME280;5374;42.742;23.266;2023-02-18T09:20:39;96153.31;;;12.63;42.29
10652;BME280;5374;42.742;23.266;2023-02-18T09:23:28;96148.72;;;12.97;41.91
10652;BME280;5374;42.742;23.266;2023-02-18T09:26:17;96137.44;;;13.34;40.99
10652;BME280;5374;42.742;23.266;2023-02-18T09:29:06;96134.69;;;13.73;39.30
10652;BME280;5374;42.742;23.266;2023-02-18T09:31:53;96127.09;;;13.91;39.15
10652;BME280;5374;42.742;23.266;2023-02-18T09:34:41;96134.69;;;14.04;38.91
10652;BME280;5374;42.742;23.266;2023-02-18T09:37:29;96126.13;;;14.34;38.22
10652;BME280;5374;42.742;23.266;2023-02-18T09:40:23;96133.72;;;14.48;37.56
10652;BME280;5374;42.742;23.266;2023-02-18T09:43:18;96140.28;;;14.72;37.19
10652;BME280;5374;42.742;23.266;2023-02-18T09:46:14;96142.13;;;15.09;35.92
10652;BME280;5374;42.742;23.266;2023-02-18T09:49:06;96129.56;;;15.09;35.91
10652;BME280;5374;42.742;23.266;2023-02-18T09:52:05;96133.06;;;15.20;35.78
10652;BME280;5374;42.742;23.266;2023-02-18T09:54:53;96132.56;;;15.28;35.23
10652;BME280;5374;42.742;23.266;2023-02-18T09:57:43;96120.75;;;15.19;35.28
10652;BME280;5374;42.742;23.266;2023-02-18T10:00:33;96133.41;;;15.33;34.54
10652;BME280;5374;42.742;23.266;2023-02-18T10:03:23;96128.09;;;15.49;34.83
10652;BME280;5374;42.742;23.266;2023-02-18T10:06:15;96111.34;;;15.94;34.92
10652;BME280;5374;42.742;23.266;2023-02-18T10:09:11;96103.56;;;16.28;33.71
10652;BME280;5374;42.742;23.266;2023-02-18T10:12:10;96110.00;;;16.67;33.97
10652;BME280;5374;42.742;23.266;2023-02-18T10:15:00;96108.88;;;16.89;31.90
10652;BME280;5374;42.742;23.266;2023-02-18T10:17:49;96099.69;;;16.95;32.05
10652;BME280;5374;42.742;23.266;2023-02-18T10:20:37;96103.66;;;17.18;31.69
10652;BME280;5374;42.742;23.266;2023-02-18T10:23:24;96110.06;;;17.22;31.09
10652;BME280;5374;42.742;23.266;2023-02-18T10:26:16;96095.00;;;17.36;30.40
10652;BME280;5374;42.742;23.266;2023-02-18T10:29:08;96100.19;;;17.12;30.73
10652;BME280;5374;42.742;23.266;2023-02-18T10:32:05;96105.31;;;17.08;30.92
10652;BME280;5374;42.742;23.266;2023-02-18T10:34:58;96106.84;;;17.30;31.19
10652;BME280;5374;42.742;23.266;2023-02-18T10:37:56;96088.50;;;17.42;30.94
10652;BME280;5374;42.742;23.266;2023-02-18T10:40:54;96088.50;;;17.42;30.32
10652;BME280;5374;42.742;23.266;2023-02-18T10:43:50;96083.81;;;17.68;30.29
10652;BME280;5374;42.742;23.266;2023-02-18T10:46:45;96076.38;;;17.99;30.21
10652;BME280;5374;42.742;23.266;2023-02-18T10:49:51;96086.03;;;18.00;29.88
10652;BME280;5374;42.742;23.266;2023-02-18T10:52:43;96075.19;;;18.10;30.15
10652;BME280;5374;42.742;23.266;2023-02-18T10:55:37;96073.56;;;17.80;29.29
10652;BME280;5374;42.742;23.266;2023-02-18T10:58:29;96072.44;;;17.37;29.82
10652;BME280;5374;42.742;23.266;2023-02-18T11:01:19;96083.59;;;16.95;30.16
10652;BME280;5374;42.742;23.266;2023-02-18T11:04:12;96081.25;;;16.73;30.74
10652;BME280;5374;42.742;23.266;2023-02-18T11:07:03;96069.16;;;16.91;30.90
10652;BME280;5374;42.742;23.266;2023-02-18T11:09:52;96065.69;;;16.85;30.61
10652;BME280;5374;42.742;23.266;2023-02-18T11:12:43;96067.88;;;16.63;31.09
10652;BME280;5374;42.742;23.266;2023-02-18T11:15:32;96060.94;;;16.47;31.46
10652;BME280;5374;42.742;23.266;2023-02-18T11:18:29;96059.59;;;16.34;31.92
10652;BME280;5374;42.742;23.266;2023-02-18T11:21:25;96053.69;;;16.27;32.49
10652;BME280;5374;42.742;23.266;2023-02-18T11:24:15;96031.47;;;16.31;32.07
10652;BME280;5374;42.742;23.266;2023-02-18T11:27:07;96027.69;;;16.48;32.34
10652;BME280;5374;42.742;23.266;2023-02-18T11:29:59;96030.88;;;16.55;31.87
10652;BME280;5374;42.742;23.266;2023-02-18T11:32:49;96023.91;;;16.54;32.06
10652;BME280;5374;42.742;23.266;2023-02-18T11:35:38;96009.16;;;16.56;31.99
10652;BME280;5374;42.742;23.266;2023-02-18T11:38:33;96005.66;;;16.66;32.11
10652;BME280;5374;42.742;23.266;2023-02-18T11:41:29;96012.84;;;16.75;32.24
10652;BME280;5374;42.742;23.266;2023-02-18T11:44:21;96000.78;;;16.83;32.33
10652;BME280;5374;42.742;23.266;2023-02-18T11:47:19;95999.09;;;16.97;32.51
10652;BME280;5374;42.742;23.266;2023-02-18T11:50:16;95980.81;;;17.04;33.06
10652;BME280;5374;42.742;23.266;2023-02-18T11:56:01;95982.03;;;17.22;32.70
10652;BME280;5374;42.742;23.266;2023-02-18T11:58:49;95975.94;;;17.17;33.24
10652;BME280;5374;42.742;23.266;2023-02-18T12:01:45;95974.22;;;17.31;33.46
10652;BME280;5374;42.742;23.266;2023-02-18T12:04:40;95954.88;;;17.34;33.26
10652;BME280;5374;42.742;23.266;2023-02-18T12:07:32;95965.44;;;17.54;33.21
10652;BME280;5374;42.742;23.266;2023-02-18T12:10:25;95968.00;;;17.74;32.69
10652;BME280;5374;42.742;23.266;2023-02-18T12:13:22;95965.72;;;17.87;32.95
10652;BME280;5374;42.742;23.266;2023-02-18T12:16:19;95953.06;;;17.92;32.92
10652;BME280;5374;42.742;23.266;2023-02-18T12:19:48;95958.63;;;17.72;32.33
10652;BME280;5374;42.742;23.266;2023-02-18T12:22:41;95953.31;;;17.62;32.25
10652;BME280;5374;42.742;23.266;2023-02-18T12:25:37;95956.84;;;17.57;32.64
10652;BME280;5374;42.742;23.266;2023-02-18T12:28:48;95942.91;;;17.50;33.68
10652;BME280;5374;42.742;23.266;2023-02-18T12:32:18;95933.78;;;17.51;33.39
10652;BME280;5374;42.742;23.266;2023-02-18T12:35:19;95914.50;;;17.44;33.40
10652;BME280;5374;42.742;23.266;2023-02-18T12:38:35;95919.06;;;17.43;33.40
10652;BME280;5374;42.742;23.266;2023-02-18T12:41:50;95909.78;;;17.31;33.43
10652;BME280;5374;42.742;23.266;2023-02-18T12:44:52;95911.94;;;17.29;33.43
10652;BME280;5374;42.742;23.266;2023-02-18T12:48:11;95911.38;;;17.32;33.85
10652;BME280;5374;42.742;23.266;2023-02-18T12:51:18;95883.47;;;17.33;32.43
10652;BME280;5374;42.742;23.266;2023-02-18T12:54:21;95893.66;;;17.36;31.99
10652;BME280;5374;42.742;23.266;2023-02-18T12:57:35;95892.41;;;17.52;33.00
10652;BME280;5374;42.742;23.266;2023-02-18T13:04:02;95899.25;;;17.39;32.95
10652;BME280;5374;42.742;23.266;2023-02-18T13:10:34;95906.41;;;17.49;33.25
10652;BME280;5374;42.742;23.266;2023-02-18T13:13:31;95901.00;;;17.54;32.99
10652;BME280;5374;42.742;23.266;2023-02-18T13:16:20;95894.72;;;17.69;33.25
10652;BME280;5374;42.742;23.266;2023-02-18T13:19:17;95893.91;;;17.63;33.48
10652;BME280;5374;42.742;23.266;2023-02-18T13:22:06;95900.38;;;17.67;33.16
10652;BME280;5374;42.742;23.266;2023-02-18T13:24:57;95906.53;;;17.68;33.25
10652;BME280;5374;42.742;23.266;2023-02-18T13:27:49;95907.91;;;17.65;33.00
10652;BME280;5374;42.742;23.266;2023-02-18T13:30:42;95905.22;;;17.65;33.25
10652;BME280;5374;42.742;23.266;2023-02-18T13:33:37;95901.56;;;17.51;33.40
10652;BME280;5374;42.742;23.266;2023-02-18T13:36:49;95904.84;;;17.43;33.43
10652;BME280;5374;42.742;23.266;2023-02-18T13:39:45;95894.22;;;17.28;33.73
10652;BME280;5374;42.742;23.266;2023-02-18T13:42:35;95909.03;;;17.20;33.64
10652;BME280;5374;42.742;23.266;2023-02-18T13:45:27;95911.28;;;17.08;33.80
10652;BME280;5374;42.742;23.266;2023-02-18T13:48:21;95902.47;;;17.02;33.99
10652;BME280;5374;42.742;23.266;2023-02-18T13:51:13;95868.81;;;16.81;34.08
10652;BME280;5374;42.742;23.266;2023-02-18T13:54:11;95896.41;;;16.87;34.01
10652;BME280;5374;42.742;23.266;2023-02-18T13:57:04;95891.72;;;16.63;34.23
10652;BME280;5374;42.742;23.266;2023-02-18T13:59:56;95881.50;;;16.65;34.26
10652;BME280;5374;42.742;23.266;2023-02-18T14:02:56;95883.66;;;16.53;34.37
10652;BME280;5374;42.742;23.266;2023-02-18T14:05:43;95886.69;;;16.47;34.77
10652;BME280;5374;42.742;23.266;2023-02-18T14:08:32;95884.56;;;16.33;34.51
10652;BME280;5374;42.742;23.266;2023-02-18T14:11:32;95892.66;;;16.23;35.06
10652;BME280;5374;42.742;23.266;2023-02-18T14:14:43;95892.97;;;16.06;35.41
10652;BME280;5374;42.742;23.266;2023-02-18T14:17:41;95892.22;;;15.96;35.80
10652;BME280;5374;42.742;23.266;2023-02-18T14:20:44;95896.50;;;15.97;35.78
10652;BME280;5374;42.742;23.266;2023-02-18T14:23:53;95895.44;;;15.93;35.83
10652;BME280;5374;42.742;23.266;2023-02-18T14:26:47;95888.78;;;15.80;35.84
10652;BME280;5374;42.742;23.266;2023-02-18T14:29:35;95897.88;;;15.79;36.15
10652;BME280;5374;42.742;23.266;2023-02-18T14:32:22;95897.63;;;15.81;36.06
10652;BME280;5374;42.742;23.266;2023-02-18T14:35:21;95891.97;;;15.82;36.37
10652;BME280;5374;42.742;23.266;2023-02-18T14:38:29;95896.81;;;15.80;36.38
10652;BME280;5374;42.742;23.266;2023-02-18T14:41:28;95892.81;;;15.72;36.11
10652;BME280;5374;42.742;23.266;2023-02-18T14:44:35;95873.81;;;15.59;36.73
10652;BME280;5374;42.742;23.266;2023-02-18T14:47:36;95895.78;;;15.56;36.58
10652;BME280;5374;42.742;23.266;2023-02-18T14:50:31;95890.13;;;15.42;36.66
10652;BME280;5374;42.742;23.266;2023-02-18T14:53:22;95885.84;;;15.46;36.83
10652;BME280;5374;42.742;23.266;2023-02-18T14:56:14;95862.56;;;15.21;36.87
10652;BME280;5374;42.742;23.266;2023-02-18T14:59:02;95883.19;;;15.26;37.15
10652;BME280;5374;42.742;23.266;2023-02-18T15:01:53;95884.25;;;15.25;37.12
10652;BME280;5374;42.742;23.266;2023-02-18T15:04:40;95878.06;;;15.14;37.35
10652;BME280;5374;42.742;23.266;2023-02-18T15:07:27;95888.78;;;15.04;37.45
10652;BME280;5374;42.742;23.266;2023-02-18T15:10:14;95879.41;;;14.96;37.72
10652;BME280;5374;42.742;23.266;2023-02-18T15:13:04;95885.03;;;14.90;37.98
10652;BME280;5374;42.742;23.266;2023-02-18T15:15:56;95864.13;;;14.71;38.01
10652;BME280;5374;42.742;23.266;2023-02-18T15:18:50;95893.00;;;14.69;38.41
10652;BME280;5374;42.742;23.266;2023-02-18T15:21:40;95887.66;;;14.69;38.34
10652;BME280;5374;42.742;23.266;2023-02-18T15:24:30;95883.66;;;14.62;38.65
10652;BME280;5374;42.742;23.266;2023-02-18T15:27:19;95876.13;;;14.44;38.77
10652;BME280;5374;42.742;23.266;2023-02-18T15:30:17;95870.22;;;14.42;38.94